createdAt,value
2019-03-24T00:01:41.662Z,41.17
2019-03-24T00:04:11.646Z,42.57
2019-03-24T00:06:41.482Z,47.23
2019-03-24T00:09:11.317Z,43.43
2019-03-24T00:11:41.175Z,43.90
2019-03-24T00:14:11.076Z,43.70
2019-03-24T00:16:40.879Z,41.23
2019-03-24T00:19:10.750Z,50.77
2019-03-24T00:21:40.611Z,44.37
2019-03-24T00:24:10.560Z,48.20
2019-03-24T00:26:40.474Z,49.03
2019-03-24T00:29:10.315Z,46.80
2019-03-24T00:31:40.243Z,54.77
2019-03-24T00:34:10.184Z,48.60
2019-03-24T00:36:40.066Z,50.07
2019-03-24T00:39:10.101Z,51.10
2019-03-24T00:41:39.921Z,49.13
2019-03-24T00:44:09.822Z,45.33
2019-03-24T00:46:39.610Z,53.60
2019-03-24T00:49:09.426Z,65.97
2019-03-24T00:51:39.323Z,51.87
2019-03-24T00:54:09.202Z,48.30
2019-03-24T00:56:38.989Z,49.37
2019-03-24T00:59:08.874Z,46.07
2019-03-24T01:01:38.662Z,59.40
2019-03-24T01:04:08.550Z,82.63
2019-03-24T01:06:38.346Z,59.93
2019-03-24T01:09:08.302Z,51.10
2019-03-24T01:11:38.150Z,51.20
2019-03-24T01:14:08.014Z,52.87
2019-03-24T01:16:37.951Z,52.60
2019-03-24T01:19:07.835Z,73.00
2019-03-24T01:21:37.717Z,56.63
2019-03-24T01:24:07.609Z,53.13
2019-03-24T01:26:37.481Z,50.73
2019-03-24T01:29:07.692Z,48.87
2019-03-24T01:31:37.578Z,55.13
2019-03-24T01:34:07.420Z,48.03
2019-03-24T01:36:37.427Z,53.90
2019-03-24T01:39:07.292Z,54.73
2019-03-24T01:41:37.233Z,65.50
2019-03-24T01:44:07.051Z,60.17
2019-03-24T01:46:36.914Z,45.60
2019-03-24T01:49:06.791Z,46.93
2019-03-24T01:51:36.700Z,46.70
2019-03-24T01:54:06.525Z,50.43
2019-03-24T01:56:36.410Z,57.30
2019-03-24T01:59:06.289Z,46.83
2019-03-24T02:01:36.611Z,47.33
2019-03-24T02:04:06.503Z,48.97
2019-03-24T02:06:38.571Z,49.63
2019-03-24T02:09:09.336Z,47.60
2019-03-24T02:11:39.342Z,50.20
2019-03-24T02:14:09.175Z,47.73
2019-03-24T02:16:39.059Z,48.77
2019-03-24T02:19:08.990Z,48.80
2019-03-24T02:21:38.937Z,46.30
2019-03-24T02:24:08.899Z,52.33
2019-03-24T02:26:39.050Z,56.27
2019-03-24T02:29:08.857Z,54.67
2019-03-24T02:31:38.767Z,62.53
2019-03-24T02:34:08.595Z,51.40
2019-03-24T02:36:38.895Z,53.60
2019-03-24T02:39:08.794Z,55.90
2019-03-24T02:41:38.771Z,49.07
2019-03-24T02:44:08.776Z,56.60
2019-03-24T02:46:38.671Z,53.07
2019-03-24T02:49:08.480Z,51.67
2019-03-24T02:51:38.449Z,54.80
2019-03-24T02:54:08.432Z,59.23
2019-03-24T02:56:38.239Z,57.70
2019-03-24T02:59:08.134Z,52.23
2019-03-24T03:01:37.967Z,48.03
2019-03-24T03:04:07.753Z,53.90
2019-03-24T03:06:37.626Z,51.00
2019-03-24T03:09:07.577Z,48.43
2019-03-24T03:11:39.046Z,44.63
2019-03-24T03:14:08.919Z,53.67
2019-03-24T03:16:39.461Z,49.20
2019-03-24T03:19:09.592Z,48.23
2019-03-24T03:21:39.411Z,50.40
2019-03-24T03:24:09.214Z,48.83
2019-03-24T03:26:39.010Z,47.93
2019-03-24T03:29:08.848Z,49.97
2019-03-24T03:31:39.501Z,50.10
2019-03-24T03:34:09.557Z,53.83
2019-03-24T03:36:39.419Z,54.97
2019-03-24T03:39:09.500Z,51.43
2019-03-24T03:41:39.380Z,48.17
2019-03-24T03:44:09.196Z,48.43
2019-03-24T03:46:51.886Z,49.10
2019-03-24T03:49:10.570Z,47.20
2019-03-24T03:51:40.423Z,44.23
2019-03-24T03:54:10.300Z,48.37
2019-03-24T03:56:40.336Z,52.50
2019-03-24T03:59:10.219Z,53.67
2019-03-24T04:01:40.054Z,47.87
2019-03-24T04:04:09.885Z,50.60
2019-03-24T04:06:39.757Z,53.03
2019-03-24T04:09:09.985Z,48.43
2019-03-24T04:11:39.893Z,48.30
2019-03-24T04:14:09.724Z,48.43
2019-03-24T04:16:39.527Z,46.17
2019-03-24T04:19:09.549Z,50.83
2019-03-24T04:21:39.424Z,49.43
2019-03-24T04:24:09.319Z,50.33
2019-03-24T04:26:39.246Z,53.37
2019-03-24T04:29:09.139Z,44.50
2019-03-24T04:31:39.157Z,57.33
2019-03-24T04:34:09.106Z,47.93
2019-03-24T04:36:40.336Z,45.30
2019-03-24T04:39:10.306Z,45.70
2019-03-24T04:41:40.278Z,46.27
2019-03-24T04:44:10.374Z,48.80
2019-03-24T04:46:40.362Z,51.53
2019-03-24T04:49:10.444Z,47.03
2019-03-24T04:51:40.330Z,49.90
2019-03-24T04:54:10.193Z,46.07
2019-03-24T04:56:40.250Z,47.30
2019-03-24T04:59:10.144Z,48.53
2019-03-24T05:01:39.968Z,53.17
2019-03-24T05:04:09.785Z,46.57
2019-03-24T05:06:41.588Z,50.00
2019-03-24T05:09:11.622Z,45.10
2019-03-24T05:11:41.595Z,48.67
2019-03-24T05:14:11.613Z,53.23
2019-03-24T05:16:41.574Z,49.63
2019-03-24T05:19:11.536Z,51.50
2019-03-24T05:21:41.405Z,49.17
2019-03-24T05:24:11.417Z,48.93
2019-03-24T05:26:41.274Z,47.03
2019-03-24T05:29:11.130Z,50.03
2019-03-24T05:31:41.207Z,47.37
2019-03-24T05:34:11.238Z,48.83
2019-03-24T05:36:41.092Z,48.40
2019-03-24T05:39:10.997Z,49.37
2019-03-24T05:41:40.986Z,49.77
2019-03-24T05:44:10.873Z,49.20
2019-03-24T05:46:40.711Z,46.53
2019-03-24T05:49:10.664Z,48.03
2019-03-24T05:51:40.758Z,47.00
2019-03-24T05:54:10.611Z,47.53
2019-03-24T05:56:40.428Z,49.43
2019-03-24T05:59:10.306Z,52.53
2019-03-24T06:01:40.389Z,47.23
2019-03-24T06:04:10.246Z,47.30
2019-03-24T06:06:40.223Z,49.87
2019-03-24T06:09:10.035Z,50.67
2019-03-24T06:11:39.872Z,44.10
2019-03-24T06:14:09.689Z,50.07
2019-03-24T06:16:39.474Z,47.37
2019-03-24T06:19:09.374Z,43.07
2019-03-24T06:21:39.266Z,48.87
2019-03-24T06:24:10.192Z,44.07
2019-03-24T06:26:40.023Z,51.30
2019-03-24T06:29:09.990Z,50.13
2019-03-24T06:31:39.802Z,47.60
2019-03-24T06:34:09.675Z,50.23
2019-03-24T06:36:39.499Z,56.17
2019-03-24T06:39:09.410Z,47.67
2019-03-24T06:41:39.282Z,47.80
2019-03-24T06:44:09.407Z,48.80
2019-03-24T06:46:39.214Z,47.90
2019-03-24T06:49:09.101Z,50.17
2019-03-24T06:51:39.176Z,53.53
2019-03-24T06:54:09.090Z,51.43
2019-03-24T06:56:39.015Z,54.77
2019-03-24T06:59:08.911Z,50.10
2019-03-24T07:01:38.870Z,49.63
2019-03-24T07:04:08.776Z,42.47
2019-03-24T07:06:38.574Z,53.60
2019-03-24T07:09:08.565Z,50.07
2019-03-24T07:11:38.459Z,48.90
2019-03-24T07:14:08.343Z,49.70
2019-03-24T07:16:38.256Z,49.90
2019-03-24T07:19:08.150Z,44.73
2019-03-24T07:21:38.133Z,55.00
2019-03-24T07:24:08.044Z,51.30
2019-03-24T07:26:37.940Z,47.87
2019-03-24T07:29:07.782Z,47.63
2019-03-24T07:31:37.718Z,49.03
2019-03-24T07:34:07.617Z,51.00
2019-03-24T07:36:37.420Z,49.50
2019-03-24T07:39:07.626Z,48.87
2019-03-24T07:41:37.551Z,52.27
2019-03-24T07:44:07.453Z,48.03
2019-03-24T07:46:37.322Z,45.90
2019-03-24T07:49:07.139Z,47.00
2019-03-24T07:51:37.014Z,45.53
2019-03-24T07:54:06.954Z,49.47
2019-03-24T07:56:36.927Z,43.67
2019-03-24T07:59:06.832Z,46.13
2019-03-24T08:01:36.847Z,49.77
2019-03-24T08:04:06.726Z,47.27
2019-03-24T08:06:36.710Z,47.33
2019-03-24T08:09:06.743Z,45.07
2019-03-24T08:11:36.632Z,47.10
2019-03-24T08:14:06.883Z,52.73
2019-03-24T08:16:36.773Z,46.60
2019-03-24T08:19:07.731Z,48.70
2019-03-24T08:21:37.548Z,49.20
2019-03-24T08:24:07.374Z,49.67
2019-03-24T08:26:37.238Z,45.20
2019-03-24T08:29:07.055Z,44.53
2019-03-24T08:31:36.860Z,46.53
2019-03-24T08:34:06.672Z,47.80
2019-03-24T08:36:36.559Z,49.13
2019-03-24T08:39:07.612Z,48.13
2019-03-24T08:41:38.764Z,50.97
2019-03-24T08:44:08.794Z,45.33
2019-03-24T08:46:38.679Z,50.30
2019-03-24T08:49:09.918Z,46.10
2019-03-24T08:51:39.874Z,46.97
2019-03-24T08:54:09.993Z,48.30
2019-03-24T08:56:40.011Z,50.77
2019-03-24T08:59:10.230Z,47.70
2019-03-24T09:01:40.569Z,45.13
2019-03-24T09:04:10.430Z,47.60
2019-03-24T09:06:40.661Z,46.57
2019-03-24T09:09:10.587Z,47.13
2019-03-24T09:11:40.554Z,43.73
2019-03-24T09:14:10.428Z,59.10
2019-03-24T09:16:40.320Z,47.70
2019-03-24T09:19:10.259Z,46.37
2019-03-24T09:21:40.166Z,44.03
2019-03-24T09:24:10.019Z,46.57
2019-03-24T09:26:40.032Z,44.03
2019-03-24T09:29:10.238Z,49.37
2019-03-24T09:31:40.170Z,53.53
2019-03-24T09:34:10.073Z,48.77
2019-03-24T09:36:40.200Z,45.63
2019-03-24T09:39:10.104Z,47.10
2019-03-24T09:41:40.012Z,47.70
2019-03-24T09:44:09.883Z,47.13
2019-03-24T09:46:39.814Z,46.67
2019-03-24T09:49:09.690Z,47.17
2019-03-24T09:51:39.607Z,44.37
2019-03-24T09:54:09.590Z,48.30
2019-03-24T09:56:39.536Z,48.67
2019-03-24T09:59:09.339Z,47.50
2019-03-24T10:01:39.143Z,65.20
2019-03-24T10:04:08.978Z,61.47
2019-03-24T10:06:39.099Z,54.67
2019-03-24T10:09:09.178Z,47.20
2019-03-24T10:11:39.016Z,54.00
2019-03-24T10:14:08.885Z,68.25
2019-03-24T10:16:38.902Z,63.53
2019-03-24T10:19:14.033Z,68.20
2019-03-24T10:21:40.562Z,55.60
2019-03-24T10:24:10.497Z,58.73
2019-03-24T10:26:40.370Z,49.65
2019-03-24T10:29:10.280Z,50.00
2019-03-24T10:31:42.509Z,52.33
2019-03-24T10:34:12.030Z,45.67
2019-03-24T10:36:42.092Z,49.30
2019-03-24T10:39:11.942Z,50.67
2019-03-24T10:41:41.841Z,48.73
2019-03-24T10:44:11.826Z,49.40
2019-03-24T10:46:41.898Z,46.23
2019-03-24T10:49:11.886Z,45.40
2019-03-24T10:51:41.737Z,50.45
2019-03-24T10:54:11.586Z,49.37
2019-03-24T10:56:41.396Z,49.53
2019-03-24T10:59:12.914Z,47.97
2019-03-24T11:01:42.791Z,49.70
2019-03-24T11:04:12.793Z,46.07
2019-03-24T11:06:42.628Z,45.93
2019-03-24T11:09:12.822Z,45.53
2019-03-24T11:11:42.718Z,95.33
2019-03-24T11:14:12.650Z,84.07
2019-03-24T11:16:42.495Z,52.97
2019-03-24T11:19:12.360Z,47.77
2019-03-24T11:21:42.229Z,42.47
2019-03-24T11:24:12.431Z,49.93
2019-03-24T11:26:42.508Z,48.17
2019-03-24T11:29:12.323Z,49.03
2019-03-24T11:31:42.244Z,64.33
2019-03-24T11:34:12.143Z,82.33
2019-03-24T11:36:42.039Z,61.10
2019-03-24T11:39:12.077Z,103.43
2019-03-24T11:41:41.921Z,50.60
2019-03-24T11:44:11.855Z,52.73
2019-03-24T11:46:41.834Z,48.60
2019-03-24T11:49:17.883Z,43.10
2019-03-24T11:51:47.702Z,44.77
2019-03-24T11:54:17.549Z,47.17
2019-03-24T11:56:47.431Z,44.60
2019-03-24T11:59:17.427Z,43.63
2019-03-24T12:01:47.406Z,43.40
2019-03-24T12:04:17.362Z,41.80
2019-03-24T12:06:47.478Z,42.90
2019-03-24T12:09:17.868Z,45.83
2019-03-24T12:11:48.734Z,45.40
2019-03-24T12:14:18.826Z,43.00
2019-03-24T12:16:48.819Z,44.57
2019-03-24T12:19:18.751Z,42.20
2019-03-24T12:21:48.764Z,42.27
2019-03-24T12:24:18.734Z,48.33
2019-03-24T12:26:48.732Z,44.53
2019-03-24T12:29:18.661Z,43.80
2019-03-24T12:31:48.843Z,48.83
2019-03-24T12:34:18.650Z,40.37
2019-03-24T12:36:48.523Z,39.10
2019-03-24T12:39:18.458Z,41.03
2019-03-24T12:41:48.392Z,47.30
2019-03-24T12:44:18.366Z,46.07
2019-03-24T12:46:48.250Z,46.60
2019-03-24T12:49:18.186Z,117.33
2019-03-24T12:51:48.332Z,88.60
2019-03-24T12:54:18.368Z,58.07
2019-03-24T12:56:48.371Z,48.30
2019-03-24T12:59:18.232Z,47.50
2019-03-24T13:01:48.250Z,46.67
2019-03-24T13:04:18.189Z,48.33
2019-03-24T13:06:48.162Z,52.03
2019-03-24T13:09:18.118Z,70.47
2019-03-24T13:11:47.997Z,70.70
2019-03-24T13:14:17.980Z,73.77
2019-03-24T13:16:47.787Z,56.77
2019-03-24T13:19:17.847Z,51.00
2019-03-24T13:21:47.702Z,48.27
2019-03-24T13:24:17.606Z,47.80
2019-03-24T13:26:47.549Z,49.47
2019-03-24T13:29:17.458Z,48.00
2019-03-24T13:31:48.317Z,49.10
2019-03-24T13:34:19.179Z,50.93
2019-03-24T13:36:49.132Z,50.33
2019-03-24T13:39:19.465Z,50.23
2019-03-24T13:41:49.304Z,47.73
2019-03-24T13:44:19.239Z,46.50
2019-03-24T13:46:49.257Z,51.40
2019-03-24T13:49:19.235Z,47.53
2019-03-24T13:51:49.215Z,47.60
2019-03-24T13:54:19.204Z,48.77
2019-03-24T13:56:49.126Z,54.20
2019-03-24T13:59:19.595Z,51.27
2019-03-24T14:01:49.574Z,49.77
2019-03-24T14:04:20.470Z,49.07
2019-03-24T14:06:50.360Z,47.97
2019-03-24T14:09:20.421Z,47.70
2019-03-24T14:11:50.303Z,50.23
2019-03-24T14:14:20.270Z,45.93
2019-03-24T14:16:50.210Z,45.73
2019-03-24T14:19:20.193Z,66.53
2019-03-24T14:21:50.253Z,67.23
2019-03-24T14:24:20.235Z,52.37
2019-03-24T14:26:50.108Z,63.37
2019-03-24T14:29:20.018Z,60.23
2019-03-24T14:31:49.847Z,54.90
2019-03-24T14:34:20.078Z,51.33
2019-03-24T14:36:50.020Z,108.73
2019-03-24T14:39:20.092Z,50.73
2019-03-24T14:41:51.156Z,48.23
2019-03-24T14:44:22.676Z,47.95
2019-03-24T14:46:53.754Z,44.67
2019-03-24T14:49:25.072Z,39.47
2019-03-24T14:51:56.139Z,37.93
2019-03-24T14:54:27.021Z,43.27
2019-03-24T14:56:58.127Z,41.97
2019-03-24T14:59:29.688Z,43.97
2019-03-24T15:02:00.690Z,41.87
2019-03-24T15:04:36.304Z,39.53
2019-03-24T15:07:07.235Z,43.90
2019-03-24T15:09:38.223Z,42.13
2019-03-24T15:12:09.111Z,42.77
2019-03-24T15:14:40.192Z,36.40
2019-03-24T15:17:11.460Z,38.37
2019-03-24T15:19:42.784Z,39.67
2019-03-24T15:22:13.746Z,39.57
2019-03-24T15:24:44.723Z,37.27
2019-03-24T15:27:15.929Z,42.50
2019-03-24T15:29:46.805Z,38.30
2019-03-24T15:32:17.692Z,41.33
2019-03-24T15:34:48.650Z,39.23
2019-03-24T15:37:19.537Z,33.27
2019-03-24T15:39:50.705Z,33.50
2019-03-24T15:42:21.726Z,33.40
2019-03-24T15:44:53.058Z,32.67
2019-03-24T15:47:24.126Z,29.83
2019-03-24T15:49:55.045Z,29.53
2019-03-24T15:52:26.141Z,34.47
2019-03-24T15:54:57.148Z,28.53
2019-03-24T15:57:28.015Z,30.23
2019-03-24T15:59:58.666Z,30.43
2019-03-24T16:02:29.522Z,31.27
2019-03-24T16:05:02.131Z,31.33
2019-03-24T16:07:33.039Z,33.93
2019-03-24T16:10:03.990Z,34.47
2019-03-24T16:12:34.963Z,32.98
2019-03-24T16:15:07.093Z,34.87
2019-03-24T16:17:37.941Z,35.23
2019-03-24T16:20:09.491Z,32.57
2019-03-24T16:22:40.400Z,34.73
2019-03-24T16:25:11.366Z,34.33
2019-03-24T16:27:42.167Z,30.70
2019-03-24T16:30:13.937Z,31.50
2019-03-24T16:32:44.975Z,32.63
2019-03-24T16:35:15.877Z,32.10
2019-03-24T16:37:45.938Z,35.77
2019-03-24T16:40:15.861Z,30.57
2019-03-24T16:42:45.712Z,30.10
2019-03-24T16:45:15.623Z,34.67
2019-03-24T16:47:45.982Z,34.13
2019-03-24T16:50:16.015Z,76.13
2019-03-24T16:52:46.132Z,89.77
2019-03-24T16:55:16.091Z,53.80
2019-03-24T16:57:46.028Z,62.60
2019-03-24T17:00:15.955Z,74.97
2019-03-24T17:02:46.081Z,67.40
2019-03-24T17:05:16.104Z,54.70
2019-03-24T17:07:46.109Z,44.23
2019-03-24T17:10:15.975Z,34.73
2019-03-24T17:12:45.951Z,31.47
2019-03-24T17:15:16.004Z,29.93
2019-03-24T17:17:46.048Z,29.63
2019-03-24T17:20:18.687Z,29.70
2019-03-24T17:22:48.803Z,27.20
2019-03-24T17:25:18.815Z,24.93
2019-03-24T17:27:48.851Z,21.17
2019-03-24T17:30:18.904Z,20.67
2019-03-24T17:32:50.540Z,22.43
2019-03-24T17:35:20.443Z,21.13
2019-03-24T17:37:50.430Z,20.37
2019-03-24T17:40:20.428Z,19.80
2019-03-24T17:42:50.667Z,19.83
2019-03-24T17:45:20.663Z,21.30
2019-03-24T17:47:50.836Z,19.97
2019-03-24T17:50:20.901Z,24.63
2019-03-24T17:52:51.017Z,20.17
2019-03-24T17:55:27.538Z,21.67
2019-03-24T17:57:52.518Z,19.90
2019-03-24T18:00:30.757Z,17.53
2019-03-24T18:03:01.211Z,16.67
2019-03-24T18:05:31.228Z,16.67
2019-03-24T18:08:01.271Z,18.30
2019-03-24T18:10:31.202Z,15.87
2019-03-24T18:13:01.150Z,19.40
2019-03-24T18:15:31.075Z,17.60
2019-03-24T18:18:01.231Z,16.83
2019-03-24T18:20:32.120Z,17.20
2019-03-24T18:23:02.266Z,15.50
2019-03-24T18:25:33.344Z,14.30
2019-03-24T18:28:03.417Z,15.40
2019-03-24T18:30:33.651Z,17.63
2019-03-24T18:33:03.652Z,16.27
2019-03-24T18:35:33.579Z,18.17
2019-03-24T18:38:03.681Z,19.03
2019-03-24T18:40:34.717Z,27.03
2019-03-24T18:43:05.100Z,19.77
2019-03-24T18:45:35.250Z,18.97
2019-03-24T18:48:05.822Z,17.57
2019-03-24T18:50:35.899Z,15.43
2019-03-24T18:53:06.038Z,20.60
2019-03-24T18:55:36.510Z,16.97
2019-03-24T18:58:06.577Z,19.03
2019-03-24T19:00:36.471Z,19.40
2019-03-24T19:03:06.600Z,17.53
2019-03-24T19:05:36.637Z,18.03
2019-03-24T19:08:06.611Z,21.27
2019-03-24T19:10:36.664Z,19.47
2019-03-24T19:13:06.587Z,19.57
2019-03-24T19:15:37.537Z,21.73
2019-03-24T19:18:07.802Z,23.50
2019-03-24T19:20:37.793Z,25.67
2019-03-24T19:23:07.830Z,20.60
2019-03-24T19:25:40.566Z,25.37
2019-03-24T19:28:10.521Z,23.77
2019-03-24T19:30:40.630Z,29.27
2019-03-24T19:33:10.906Z,26.73
2019-03-24T19:35:40.906Z,24.73
2019-03-24T19:38:11.818Z,25.33
2019-03-24T19:40:41.767Z,30.57
2019-03-24T19:43:11.654Z,23.33
2019-03-24T19:45:41.658Z,27.47
2019-03-24T19:48:11.894Z,28.60
2019-03-24T19:50:41.826Z,28.67
2019-03-24T19:53:11.736Z,28.77
2019-03-24T19:55:42.105Z,29.90
2019-03-24T19:58:12.087Z,26.43
2019-03-24T20:00:42.040Z,33.20
2019-03-24T20:03:12.308Z,31.00
2019-03-24T20:05:43.323Z,31.40
2019-03-24T20:08:13.235Z,26.20
2019-03-24T20:10:43.425Z,27.30
2019-03-24T20:13:13.434Z,28.77
2019-03-24T20:15:43.259Z,23.80
2019-03-24T20:18:13.739Z,27.33
2019-03-24T20:20:43.844Z,33.17
2019-03-24T20:23:13.794Z,25.53
2019-03-24T20:25:44.141Z,25.83
2019-03-24T20:28:14.313Z,27.67
2019-03-24T20:30:44.342Z,28.03
2019-03-24T20:33:14.195Z,24.80
2019-03-24T20:35:45.963Z,25.00
2019-03-24T20:38:16.165Z,24.97
2019-03-24T20:40:46.075Z,21.33
2019-03-24T20:43:16.013Z,21.80
2019-03-24T20:45:45.971Z,23.33
2019-03-24T20:48:16.877Z,22.53
2019-03-24T20:50:46.897Z,21.37
2019-03-24T20:53:18.314Z,20.97
2019-03-24T20:55:49.077Z,18.40
2019-03-24T20:58:19.566Z,23.30
2019-03-24T21:00:49.754Z,20.13
2019-03-24T21:03:19.870Z,22.50
2019-03-24T21:05:49.896Z,22.20
2019-03-24T21:08:19.948Z,21.17
2019-03-24T21:10:49.808Z,20.20
2019-03-24T21:13:19.929Z,15.80
2019-03-24T21:15:49.910Z,22.53
2019-03-24T21:18:20.000Z,14.53
2019-03-24T21:20:49.875Z,18.07
2019-03-24T21:23:29.065Z,16.53
2019-03-24T21:25:52.651Z,18.27
2019-03-24T21:28:22.613Z,16.73
2019-03-24T21:30:52.500Z,15.10
2019-03-24T21:33:22.559Z,13.70
2019-03-24T21:35:52.499Z,18.83
2019-03-24T21:38:22.598Z,17.00
2019-03-24T21:40:52.650Z,17.23
2019-03-24T21:43:22.713Z,18.53
2019-03-24T21:45:52.584Z,15.07
2019-03-24T21:48:22.705Z,14.47
2019-03-24T21:50:52.794Z,13.93
2019-03-24T21:53:22.890Z,14.67
2019-03-24T21:55:52.975Z,14.83
2019-03-24T21:58:22.882Z,15.13
2019-03-24T22:00:52.793Z,16.67
2019-03-24T22:03:22.730Z,14.87
2019-03-24T22:05:52.655Z,14.30
2019-03-24T22:08:22.853Z,11.03
2019-03-24T22:10:52.710Z,13.00
2019-03-24T22:13:22.909Z,15.20
2019-03-24T22:15:52.846Z,14.80
2019-03-24T22:18:22.814Z,14.17
2019-03-24T22:20:52.798Z,18.50
2019-03-24T22:23:22.658Z,17.80
2019-03-24T22:25:52.458Z,15.77
2019-03-24T22:28:22.394Z,13.20
2019-03-24T22:30:52.471Z,12.30
2019-03-24T22:33:22.364Z,15.63
2019-03-24T22:35:52.223Z,16.00
2019-03-24T22:38:22.283Z,18.57
2019-03-24T22:40:52.158Z,21.03
2019-03-24T22:43:22.108Z,19.63
2019-03-24T22:45:52.158Z,22.27
2019-03-24T22:48:22.177Z,19.03
2019-03-24T22:50:52.162Z,15.23
2019-03-24T22:53:22.130Z,14.43
2019-03-24T22:55:51.971Z,11.13
2019-03-24T22:58:21.823Z,14.17
2019-03-24T23:00:56.727Z,12.27
2019-03-24T23:03:26.707Z,15.80
2019-03-24T23:05:56.514Z,11.80
2019-03-24T23:08:26.429Z,13.20
2019-03-24T23:10:56.350Z,12.93
2019-03-24T23:13:26.353Z,11.20
2019-03-24T23:15:56.353Z,14.33
2019-03-24T23:18:26.162Z,12.63
2019-03-24T23:20:56.365Z,10.03
2019-03-24T23:23:26.256Z,10.70
2019-03-24T23:25:56.261Z,11.00
2019-03-24T23:28:26.289Z,21.23
2019-03-24T23:30:56.281Z,15.17
2019-03-24T23:33:26.180Z,15.13
2019-03-24T23:35:56.390Z,12.43
2019-03-24T23:38:26.286Z,11.87
2019-03-24T23:40:56.190Z,11.50
2019-03-24T23:43:26.211Z,8.93
2019-03-24T23:45:56.062Z,10.67
2019-03-24T23:48:26.034Z,10.70
2019-03-24T23:50:56.183Z,15.27
2019-03-24T23:53:26.070Z,8.40
2019-03-24T23:55:55.970Z,10.73
2019-03-24T23:58:39.651Z,12.17
